createdAt,value
2022-12-24T00:00:00.725Z,938.09
2022-12-24T00:00:10.732Z,938.06
2022-12-24T00:00:20.758Z,938.04
2022-12-24T00:00:30.769Z,938.06
2022-12-24T00:00:40.758Z,938.06
2022-12-24T00:00:50.797Z,938.07
2022-12-24T00:01:00.721Z,938.06
2022-12-24T00:01:10.699Z,938.07
2022-12-24T00:01:20.721Z,938.09
2022-12-24T00:01:30.716Z,938.06
2022-12-24T00:01:40.716Z,938.06
2022-12-24T00:01:50.724Z,938.09
2022-12-24T00:02:00.756Z,938.11
2022-12-24T00:02:10.825Z,938.10
2022-12-24T00:02:20.789Z,938.11
2022-12-24T00:02:30.806Z,938.13
2022-12-24T00:02:40.854Z,938.08
2022-12-24T00:02:50.922Z,938.06
2022-12-24T00:03:00.842Z,938.08
2022-12-24T00:03:10.891Z,938.08
2022-12-24T00:03:20.903Z,938.10
2022-12-24T00:03:30.936Z,938.10
2022-12-24T00:03:40.896Z,938.11
2022-12-24T00:03:50.887Z,938.12
2022-12-24T00:04:00.725Z,938.12
2022-12-24T00:04:10.748Z,938.13
2022-12-24T00:04:20.730Z,938.11
2022-12-24T00:04:30.728Z,938.12
2022-12-24T00:04:40.739Z,938.10
2022-12-24T00:04:54.183Z,938.15
2022-12-24T00:05:02.017Z,938.11
2022-12-24T00:05:10.733Z,938.05
2022-12-24T00:05:20.737Z,938.06
2022-12-24T00:05:30.734Z,938.04
2022-12-24T00:05:40.732Z,938.05
2022-12-24T00:05:50.742Z,938.03
2022-12-24T00:06:00.735Z,938.02
2022-12-24T00:06:10.737Z,938.05
2022-12-24T00:06:20.749Z,938.03
2022-12-24T00:06:30.743Z,938.05
2022-12-24T00:06:40.741Z,938.05
2022-12-24T00:06:50.748Z,938.05
2022-12-24T00:07:00.741Z,938.00
2022-12-24T00:07:10.745Z,938.07
2022-12-24T00:07:20.750Z,938.09
2022-12-24T00:07:30.749Z,938.02
2022-12-24T00:07:40.742Z,937.98
2022-12-24T00:07:50.743Z,938.01
2022-12-24T00:08:00.744Z,938.04
2022-12-24T00:08:10.745Z,938.05
2022-12-24T00:08:20.748Z,938.05
2022-12-24T00:08:30.749Z,938.06
2022-12-24T00:08:40.736Z,938.06
2022-12-24T00:08:50.747Z,938.05
2022-12-24T00:09:00.753Z,938.06
2022-12-24T00:09:10.754Z,938.09
2022-12-24T00:09:20.751Z,938.09
2022-12-24T00:09:30.756Z,938.10
2022-12-24T00:09:40.758Z,938.12
2022-12-24T00:09:50.752Z,938.06
2022-12-24T00:10:00.758Z,938.05
2022-12-24T00:10:10.755Z,938.09
2022-12-24T00:10:20.758Z,938.11
2022-12-24T00:10:30.760Z,938.10
2022-12-24T00:10:40.761Z,938.10
2022-12-24T00:10:50.774Z,938.15
2022-12-24T00:11:00.771Z,938.11
2022-12-24T00:11:10.760Z,938.12
2022-12-24T00:11:20.759Z,938.12
2022-12-24T00:11:30.760Z,938.10
2022-12-24T00:11:40.763Z,938.11
2022-12-24T00:11:50.764Z,938.12
2022-12-24T00:12:00.795Z,938.13
2022-12-24T00:12:10.770Z,938.16
2022-12-24T00:12:20.764Z,938.11
2022-12-24T00:12:30.765Z,938.12
2022-12-24T00:12:40.769Z,938.08
2022-12-24T00:12:50.772Z,938.08
2022-12-24T00:13:00.771Z,938.08
2022-12-24T00:13:10.775Z,938.08
2022-12-24T00:13:20.799Z,938.11
2022-12-24T00:13:30.772Z,938.12
2022-12-24T00:13:40.772Z,938.17
2022-12-24T00:13:50.786Z,938.20
2022-12-24T00:14:00.788Z,938.18
2022-12-24T00:14:10.822Z,938.15
2022-12-24T00:14:20.776Z,938.15
2022-12-24T00:14:30.776Z,938.14
2022-12-24T00:14:40.781Z,938.11
2022-12-24T00:14:50.783Z,938.10
2022-12-24T00:15:00.807Z,938.11
2022-12-24T00:15:10.791Z,938.14
2022-12-24T00:15:20.789Z,938.16
2022-12-24T00:15:30.782Z,938.17
2022-12-24T00:15:40.788Z,938.17
2022-12-24T00:15:50.802Z,938.17
2022-12-24T00:16:00.803Z,938.16
2022-12-24T00:16:10.788Z,938.18
2022-12-24T00:16:20.817Z,938.18
2022-12-24T00:16:30.895Z,938.15
2022-12-24T00:16:40.884Z,938.11
2022-12-24T00:16:50.934Z,938.10
2022-12-24T00:17:00.864Z,938.12
2022-12-24T00:17:10.817Z,938.15
2022-12-24T00:17:20.794Z,938.17
2022-12-24T00:17:30.798Z,938.18
2022-12-24T00:17:40.796Z,938.20
2022-12-24T00:17:50.794Z,938.20
2022-12-24T00:18:00.802Z,938.19
2022-12-24T00:18:10.803Z,938.18
2022-12-24T00:18:20.798Z,938.17
2022-12-24T00:18:30.802Z,938.13
2022-12-24T00:18:45.835Z,938.12
2022-12-24T00:18:51.799Z,938.15
2022-12-24T00:19:00.806Z,938.17
2022-12-24T00:19:10.801Z,938.16
2022-12-24T00:19:20.803Z,938.17
2022-12-24T00:19:30.804Z,938.18
2022-12-24T00:19:40.805Z,938.19
2022-12-24T00:19:50.816Z,938.20
2022-12-24T00:20:00.828Z,938.21
2022-12-24T00:20:10.805Z,938.24
2022-12-24T00:20:20.809Z,938.24
2022-12-24T00:20:30.810Z,938.23
2022-12-24T00:20:40.811Z,938.23
2022-12-24T00:20:50.856Z,938.24
2022-12-24T00:21:00.814Z,938.24
2022-12-24T00:21:10.814Z,938.21
2022-12-24T00:21:20.812Z,938.17
2022-12-24T00:21:30.813Z,938.17
2022-12-24T00:21:40.813Z,938.17
2022-12-24T00:21:50.815Z,938.19
2022-12-24T00:22:00.812Z,938.23
2022-12-24T00:22:10.816Z,938.25
2022-12-24T00:22:20.821Z,938.24
2022-12-24T00:22:30.827Z,938.24
2022-12-24T00:22:40.822Z,938.21
2022-12-24T00:22:50.823Z,938.17
2022-12-24T00:23:00.828Z,938.18
2022-12-24T00:23:10.818Z,938.21
2022-12-24T00:23:20.829Z,938.23
2022-12-24T00:23:30.817Z,938.25
2022-12-24T00:23:40.847Z,938.18
2022-12-24T00:23:50.822Z,938.17
2022-12-24T00:24:00.832Z,938.15
2022-12-24T00:24:10.827Z,938.15
2022-12-24T00:24:20.825Z,938.04
2022-12-24T00:24:30.828Z,938.13
2022-12-24T00:24:40.812Z,938.18
2022-12-24T00:24:50.860Z,938.22
2022-12-24T00:25:00.824Z,938.20
2022-12-24T00:25:10.827Z,938.21
2022-12-24T00:25:20.827Z,938.18
2022-12-24T00:25:30.834Z,938.17
2022-12-24T00:25:40.828Z,938.16
2022-12-24T00:25:50.829Z,938.20
2022-12-24T00:26:00.829Z,938.24
2022-12-24T00:26:10.833Z,938.26
2022-12-24T00:26:20.829Z,938.27
2022-12-24T00:26:30.835Z,938.30
2022-12-24T00:26:40.831Z,938.32
2022-12-24T00:26:50.835Z,938.30
2022-12-24T00:27:00.853Z,938.26
2022-12-24T00:27:10.834Z,938.24
2022-12-24T00:27:20.835Z,938.26
2022-12-24T00:27:30.835Z,938.29
2022-12-24T00:27:40.849Z,938.32
2022-12-24T00:27:50.837Z,938.34
2022-12-24T00:28:00.837Z,938.32
2022-12-24T00:28:10.841Z,938.31
2022-12-24T00:28:20.837Z,938.32
2022-12-24T00:28:30.850Z,938.31
2022-12-24T00:28:40.842Z,938.28
2022-12-24T00:28:50.849Z,938.30
2022-12-24T00:29:00.857Z,938.30
2022-12-24T00:29:10.851Z,938.24
2022-12-24T00:29:20.843Z,938.19
2022-12-24T00:29:30.855Z,938.16
2022-12-24T00:29:40.848Z,938.22
2022-12-24T00:29:50.848Z,938.19
2022-12-24T00:30:00.852Z,938.18
2022-12-24T00:30:10.846Z,938.21
2022-12-24T00:30:20.846Z,938.17
2022-12-24T00:30:30.878Z,938.21
2022-12-24T00:30:40.888Z,938.21
2022-12-24T00:30:50.875Z,938.22
2022-12-24T00:31:00.915Z,938.21
2022-12-24T00:31:10.883Z,938.20
2022-12-24T00:31:20.919Z,938.21
2022-12-24T00:31:30.901Z,938.21
2022-12-24T00:31:40.854Z,938.22
2022-12-24T00:31:50.859Z,938.20
2022-12-24T00:32:00.860Z,938.20
2022-12-24T00:32:10.856Z,938.19
2022-12-24T00:32:20.857Z,938.21
2022-12-24T00:32:30.861Z,938.22
2022-12-24T00:32:40.861Z,938.23
2022-12-24T00:32:50.863Z,938.21
2022-12-24T00:33:00.855Z,938.21
2022-12-24T00:33:10.872Z,938.22
2022-12-24T00:33:24.434Z,938.21
2022-12-24T00:33:30.871Z,938.22
2022-12-24T00:33:40.865Z,938.23
2022-12-24T00:33:50.869Z,938.24
2022-12-24T00:34:00.859Z,938.24
2022-12-24T00:34:10.868Z,938.23
2022-12-24T00:34:20.869Z,938.23
2022-12-24T00:34:30.880Z,938.30
2022-12-24T00:34:40.872Z,938.24
2022-12-24T00:34:50.877Z,938.21
2022-12-24T00:35:00.878Z,938.24
2022-12-24T00:35:10.873Z,938.26
2022-12-24T00:35:20.878Z,938.26
2022-12-24T00:35:30.883Z,938.30
2022-12-24T00:35:40.882Z,938.26
2022-12-24T00:35:50.884Z,938.18
2022-12-24T00:36:00.912Z,938.22
2022-12-24T00:36:10.881Z,938.23
2022-12-24T00:36:20.886Z,938.23
2022-12-24T00:36:30.886Z,938.25
2022-12-24T00:36:40.883Z,938.25
2022-12-24T00:36:50.895Z,938.26
2022-12-24T00:37:00.891Z,938.16
2022-12-24T00:37:10.885Z,938.20
2022-12-24T00:37:20.888Z,938.22
2022-12-24T00:37:30.881Z,938.28
2022-12-24T00:37:40.886Z,938.39
2022-12-24T00:37:50.890Z,938.32
2022-12-24T00:38:00.893Z,938.32
2022-12-24T00:38:10.899Z,938.37
2022-12-24T00:38:20.900Z,938.25
2022-12-24T00:38:30.889Z,938.36
2022-12-24T00:38:40.894Z,938.33
2022-12-24T00:38:50.891Z,938.32
2022-12-24T00:39:00.891Z,938.32
2022-12-24T00:39:10.902Z,938.34
2022-12-24T00:39:20.894Z,938.28
2022-12-24T00:39:30.891Z,938.27
2022-12-24T00:39:40.891Z,938.24
2022-12-24T00:39:50.893Z,938.33
2022-12-24T00:40:00.899Z,938.32
2022-12-24T00:40:10.903Z,938.32
2022-12-24T00:40:20.904Z,938.29
2022-12-24T00:40:30.905Z,938.29
2022-12-24T00:40:40.899Z,938.29
2022-12-24T00:40:50.897Z,938.32
2022-12-24T00:41:00.925Z,938.33
2022-12-24T00:41:10.912Z,938.37
2022-12-24T00:41:20.925Z,938.26
2022-12-24T00:41:30.904Z,938.23
2022-12-24T00:41:40.911Z,938.21
2022-12-24T00:41:50.902Z,938.27
2022-12-24T00:42:00.904Z,938.27
2022-12-24T00:42:10.909Z,938.28
2022-12-24T00:42:20.904Z,938.29
2022-12-24T00:42:30.911Z,938.33
2022-12-24T00:42:40.912Z,938.31
2022-12-24T00:42:50.906Z,938.33
2022-12-24T00:43:00.917Z,938.38
2022-12-24T00:43:10.910Z,938.34
2022-12-24T00:43:20.907Z,938.28
2022-12-24T00:43:30.918Z,938.29
2022-12-24T00:43:40.909Z,938.29
2022-12-24T00:43:50.910Z,938.35
2022-12-24T00:44:00.927Z,938.23
2022-12-24T00:44:10.895Z,938.29
2022-12-24T00:44:20.918Z,938.33
2022-12-24T00:44:30.913Z,938.37
2022-12-24T00:44:40.914Z,938.39
2022-12-24T00:44:50.915Z,938.37
2022-12-24T00:45:00.916Z,938.39
2022-12-24T00:45:10.916Z,938.40
2022-12-24T00:45:20.917Z,938.40
2022-12-24T00:45:30.934Z,938.39
2022-12-24T00:45:40.917Z,938.42
2022-12-24T00:45:50.938Z,938.40
2022-12-24T00:46:01.068Z,938.36
2022-12-24T00:46:10.973Z,938.36
2022-12-24T00:46:20.980Z,938.38
2022-12-24T00:46:30.977Z,938.35
2022-12-24T00:46:40.974Z,938.36
2022-12-24T00:46:50.925Z,938.39
2022-12-24T00:47:01.930Z,938.36
2022-12-24T00:47:12.298Z,938.39
2022-12-24T00:47:20.931Z,938.42
2022-12-24T00:47:30.933Z,938.43
2022-12-24T00:47:40.931Z,938.40
2022-12-24T00:47:50.932Z,938.41
2022-12-24T00:48:00.932Z,938.43
2022-12-24T00:48:10.935Z,938.43
2022-12-24T00:48:20.931Z,938.44
2022-12-24T00:48:30.933Z,938.42
2022-12-24T00:48:40.934Z,938.41
2022-12-24T00:48:50.941Z,938.41
2022-12-24T00:49:00.951Z,938.42
2022-12-24T00:49:10.961Z,938.44
2022-12-24T00:49:20.949Z,938.43
2022-12-24T00:49:30.938Z,938.38
2022-12-24T00:49:40.939Z,938.37
2022-12-24T00:49:50.952Z,938.41
2022-12-24T00:50:00.965Z,938.42
2022-12-24T00:50:10.945Z,938.38
2022-12-24T00:50:20.965Z,938.36
2022-12-24T00:50:30.947Z,938.36
2022-12-24T00:50:40.988Z,938.40
2022-12-24T00:50:50.980Z,938.42
2022-12-24T00:51:01.022Z,938.43
2022-12-24T00:51:10.982Z,938.38
2022-12-24T00:51:21.071Z,938.33
2022-12-24T00:51:30.986Z,938.35
2022-12-24T00:51:40.945Z,938.39
2022-12-24T00:51:50.949Z,938.39
2022-12-24T00:52:00.951Z,938.41
2022-12-24T00:52:10.965Z,938.42
2022-12-24T00:52:20.952Z,938.43
2022-12-24T00:52:30.953Z,938.41
2022-12-24T00:52:40.954Z,938.42
2022-12-24T00:52:50.936Z,938.43
2022-12-24T00:53:00.958Z,938.43
2022-12-24T00:53:10.958Z,938.40
2022-12-24T00:53:20.956Z,938.42
2022-12-24T00:53:30.959Z,938.45
2022-12-24T00:53:40.961Z,938.43
2022-12-24T00:53:50.969Z,938.49
2022-12-24T00:54:00.976Z,938.45
2022-12-24T00:54:10.967Z,938.45
2022-12-24T00:54:20.961Z,938.39
2022-12-24T00:54:30.964Z,938.41
2022-12-24T00:54:40.961Z,938.39
2022-12-24T00:54:50.961Z,938.41
2022-12-24T00:55:00.977Z,938.45
2022-12-24T00:55:10.967Z,938.47
2022-12-24T00:55:20.968Z,938.46
2022-12-24T00:55:30.969Z,938.46
2022-12-24T00:55:40.969Z,938.46
2022-12-24T00:55:50.975Z,938.46
2022-12-24T00:56:00.974Z,938.43
2022-12-24T00:56:10.974Z,938.44
2022-12-24T00:56:21.000Z,938.47
2022-12-24T00:56:30.976Z,938.47
2022-12-24T00:56:40.971Z,938.46
2022-12-24T00:56:50.977Z,938.48
2022-12-24T00:57:00.976Z,938.46
2022-12-24T00:57:10.984Z,938.42
2022-12-24T00:57:20.980Z,938.39
2022-12-24T00:57:30.979Z,938.40
2022-12-24T00:57:40.981Z,938.45
2022-12-24T00:57:50.983Z,938.46
2022-12-24T00:58:00.987Z,938.40
2022-12-24T00:58:10.979Z,938.41
2022-12-24T00:58:20.980Z,938.43
2022-12-24T00:58:30.980Z,938.42
2022-12-24T00:58:40.981Z,938.41
2022-12-24T00:58:50.979Z,938.42
2022-12-24T00:59:00.982Z,938.40
2022-12-24T00:59:10.986Z,938.40
2022-12-24T00:59:20.982Z,938.41
2022-12-24T00:59:30.991Z,938.40
2022-12-24T00:59:40.984Z,938.41
2022-12-24T00:59:50.985Z,938.47
2022-12-24T01:00:00.995Z,938.41
2022-12-24T01:00:10.992Z,938.38
2022-12-24T01:00:20.986Z,938.40
2022-12-24T01:00:30.991Z,938.39
2022-12-24T01:00:41.005Z,938.39
2022-12-24T01:00:50.993Z,938.38
2022-12-24T01:01:01.058Z,938.38
2022-12-24T01:01:11.070Z,938.44
2022-12-24T01:01:21.119Z,938.47
2022-12-24T01:01:31.053Z,938.45
2022-12-24T01:01:41.098Z,938.45
2022-12-24T01:01:51.083Z,938.46
2022-12-24T01:02:01.135Z,938.44
2022-12-24T01:02:11.240Z,938.43
2022-12-24T01:02:21.197Z,938.42
2022-12-24T01:02:31.128Z,938.45
2022-12-24T01:02:41.185Z,938.44
2022-12-24T01:02:51.112Z,938.45
2022-12-24T01:03:01.187Z,938.47
2022-12-24T01:03:11.135Z,938.45
2022-12-24T01:03:21.061Z,938.44
2022-12-24T01:03:31.070Z,938.45
2022-12-24T01:03:41.024Z,938.44
2022-12-24T01:03:51.076Z,938.45
2022-12-24T01:04:01.002Z,938.40
2022-12-24T01:04:11.008Z,938.44
2022-12-24T01:04:21.013Z,938.45
2022-12-24T01:04:31.009Z,938.33
2022-12-24T01:04:41.008Z,938.38
2022-12-24T01:04:51.008Z,938.38
2022-12-24T01:05:01.019Z,938.42
2022-12-24T01:05:11.017Z,938.47
2022-12-24T01:05:21.012Z,938.51
2022-12-24T01:05:31.017Z,938.44
2022-12-24T01:05:41.010Z,938.46
2022-12-24T01:05:51.014Z,938.47
2022-12-24T01:06:01.013Z,938.45
2022-12-24T01:06:11.012Z,938.49
2022-12-24T01:06:21.022Z,938.49
2022-12-24T01:06:31.017Z,938.49
2022-12-24T01:06:41.035Z,938.44
2022-12-24T01:06:51.021Z,938.44
2022-12-24T01:07:01.022Z,938.48
2022-12-24T01:07:11.026Z,938.44
2022-12-24T01:07:21.021Z,938.44
2022-12-24T01:07:31.074Z,938.43
2022-12-24T01:07:41.030Z,938.45
2022-12-24T01:07:51.025Z,938.51
2022-12-24T01:08:01.023Z,938.54
2022-12-24T01:08:11.029Z,938.51
2022-12-24T01:08:21.026Z,938.55
2022-12-24T01:08:31.044Z,938.58
2022-12-24T01:08:41.031Z,938.55
2022-12-24T01:08:51.030Z,938.48
2022-12-24T01:09:01.035Z,938.53
2022-12-24T01:09:11.039Z,938.52
2022-12-24T01:09:21.035Z,938.49
2022-12-24T01:09:31.034Z,938.53
2022-12-24T01:09:41.044Z,938.57
2022-12-24T01:09:51.037Z,938.58
2022-12-24T01:10:01.053Z,938.60
2022-12-24T01:10:11.044Z,938.61
2022-12-24T01:10:21.037Z,938.65
2022-12-24T01:10:31.045Z,938.57
2022-12-24T01:10:41.043Z,938.48
2022-12-24T01:10:51.045Z,938.44
2022-12-24T01:11:01.166Z,938.50
2022-12-24T01:11:11.041Z,938.52
2022-12-24T01:11:21.042Z,938.48
2022-12-24T01:11:31.046Z,938.51
2022-12-24T01:11:41.057Z,938.54
2022-12-24T01:11:51.046Z,938.56
2022-12-24T01:12:01.049Z,938.59
2022-12-24T01:12:11.050Z,938.60
2022-12-24T01:12:21.052Z,938.59
2022-12-24T01:12:31.054Z,938.61
2022-12-24T01:12:41.096Z,938.59
2022-12-24T01:12:51.059Z,938.59
2022-12-24T01:13:01.057Z,938.58
2022-12-24T01:13:11.060Z,938.59
2022-12-24T01:13:21.069Z,938.59
2022-12-24T01:13:31.064Z,938.60
2022-12-24T01:13:41.057Z,938.61
2022-12-24T01:13:51.058Z,938.59
2022-12-24T01:14:01.058Z,938.61
2022-12-24T01:14:11.066Z,938.66
2022-12-24T01:14:21.058Z,938.63
2022-12-24T01:14:31.061Z,938.62
2022-12-24T01:14:41.062Z,938.62
2022-12-24T01:14:51.065Z,938.65
2022-12-24T01:15:01.082Z,938.69
2022-12-24T01:15:11.074Z,938.67
2022-12-24T01:15:21.067Z,938.69
2022-12-24T01:15:31.111Z,938.69
2022-12-24T01:15:41.091Z,938.70
2022-12-24T01:15:51.086Z,938.66
2022-12-24T01:16:01.816Z,938.65
2022-12-24T01:16:11.115Z,938.66
2022-12-24T01:16:21.197Z,938.67
2022-12-24T01:16:31.119Z,938.67
2022-12-24T01:16:41.069Z,938.68
2022-12-24T01:16:51.071Z,938.71
2022-12-24T01:17:01.087Z,938.68
2022-12-24T01:17:11.073Z,938.70
2022-12-24T01:17:21.083Z,938.71
2022-12-24T01:17:31.074Z,938.73
2022-12-24T01:17:41.074Z,938.73
2022-12-24T01:17:51.076Z,938.74
2022-12-24T01:18:01.085Z,938.71
2022-12-24T01:18:11.079Z,938.73
2022-12-24T01:18:21.082Z,938.73
2022-12-24T01:18:31.079Z,938.72
2022-12-24T01:18:41.081Z,938.74
2022-12-24T01:18:51.087Z,938.78
2022-12-24T01:19:01.090Z,938.77
2022-12-24T01:19:11.079Z,938.71
2022-12-24T01:19:21.088Z,938.74
2022-12-24T01:19:31.090Z,938.72
2022-12-24T01:19:41.083Z,938.69
2022-12-24T01:19:51.091Z,938.71
2022-12-24T01:20:01.152Z,938.73
2022-12-24T01:20:11.088Z,938.76
2022-12-24T01:20:21.088Z,938.78
2022-12-24T01:20:31.093Z,938.79
2022-12-24T01:20:41.093Z,938.70
2022-12-24T01:20:51.092Z,938.74
2022-12-24T01:21:01.761Z,938.81
2022-12-24T01:21:11.096Z,938.80
2022-12-24T01:21:21.095Z,938.78
2022-12-24T01:21:31.084Z,938.81
2022-12-24T01:21:41.109Z,938.80
2022-12-24T01:21:51.102Z,938.77
2022-12-24T01:22:01.105Z,938.82
2022-12-24T01:22:11.101Z,938.83
2022-12-24T01:22:21.101Z,938.84
2022-12-24T01:22:31.108Z,938.80
2022-12-24T01:22:41.111Z,938.80
2022-12-24T01:22:51.106Z,938.80
2022-12-24T01:23:01.102Z,938.83
2022-12-24T01:23:11.103Z,938.83
2022-12-24T01:23:21.108Z,938.81
2022-12-24T01:23:31.103Z,938.84
2022-12-24T01:23:41.110Z,938.85
2022-12-24T01:23:51.115Z,938.84
2022-12-24T01:24:01.106Z,938.86
2022-12-24T01:24:11.109Z,938.90
2022-12-24T01:24:21.107Z,938.89
2022-12-24T01:24:31.109Z,938.87
2022-12-24T01:24:41.125Z,938.90
2022-12-24T01:24:51.109Z,938.92
2022-12-24T01:25:01.149Z,938.91
2022-12-24T01:25:11.117Z,938.87
2022-12-24T01:25:21.116Z,938.88
2022-12-24T01:25:31.157Z,938.89
2022-12-24T01:25:41.116Z,938.91
2022-12-24T01:25:51.116Z,938.94
2022-12-24T01:26:01.763Z,938.89
2022-12-24T01:26:11.117Z,938.90
2022-12-24T01:26:21.133Z,938.90
2022-12-24T01:26:31.120Z,938.90
2022-12-24T01:26:41.122Z,938.98
2022-12-24T01:26:51.119Z,939.04
2022-12-24T01:27:01.123Z,939.03
2022-12-24T01:27:11.123Z,939.01
2022-12-24T01:27:21.142Z,939.03
2022-12-24T01:27:31.125Z,939.10
2022-12-24T01:27:41.124Z,939.07
2022-12-24T01:27:51.123Z,938.99
2022-12-24T01:28:01.130Z,939.00
2022-12-24T01:28:11.124Z,938.98
2022-12-24T01:28:21.130Z,939.03
2022-12-24T01:28:31.135Z,939.11
2022-12-24T01:28:41.131Z,939.10
2022-12-24T01:28:51.131Z,939.06
2022-12-24T01:29:01.145Z,939.04
2022-12-24T01:29:11.132Z,939.03
2022-12-24T01:29:21.139Z,939.06
2022-12-24T01:29:31.133Z,939.09
2022-12-24T01:29:41.143Z,939.11
2022-12-24T01:29:51.134Z,939.09
2022-12-24T01:30:01.152Z,939.06
2022-12-24T01:30:11.125Z,939.06
2022-12-24T01:30:21.136Z,939.05
2022-12-24T01:30:31.139Z,939.03
2022-12-24T01:30:41.147Z,939.03
2022-12-24T01:30:51.221Z,939.06
2022-12-24T01:31:01.807Z,939.07
2022-12-24T01:31:11.172Z,939.04
2022-12-24T01:31:21.181Z,939.08
2022-12-24T01:31:31.169Z,939.07
2022-12-24T01:31:41.207Z,938.99
2022-12-24T01:31:51.152Z,939.01
2022-12-24T01:32:01.132Z,939.03
2022-12-24T01:32:11.152Z,939.02
2022-12-24T01:32:21.150Z,939.02
2022-12-24T01:32:31.152Z,939.05
2022-12-24T01:32:41.159Z,939.06
2022-12-24T01:32:51.166Z,939.09
2022-12-24T01:33:01.166Z,939.07
2022-12-24T01:33:11.159Z,939.10
2022-12-24T01:33:21.160Z,939.10
2022-12-24T01:33:31.158Z,939.08
2022-12-24T01:33:41.161Z,939.03
2022-12-24T01:33:51.158Z,938.99
2022-12-24T01:34:01.157Z,939.03
2022-12-24T01:34:11.143Z,939.08
2022-12-24T01:34:21.168Z,939.12
2022-12-24T01:34:31.164Z,939.16
2022-12-24T01:34:41.168Z,939.16
2022-12-24T01:34:51.168Z,939.08
2022-12-24T01:35:01.184Z,939.08
2022-12-24T01:35:11.170Z,939.12
2022-12-24T01:35:21.178Z,939.12
2022-12-24T01:35:31.187Z,939.14
2022-12-24T01:35:41.171Z,939.19
2022-12-24T01:35:51.180Z,939.19
2022-12-24T01:36:01.168Z,939.12
2022-12-24T01:36:11.171Z,939.08
2022-12-24T01:36:21.173Z,939.10
2022-12-24T01:36:31.184Z,939.12
2022-12-24T01:36:41.179Z,939.10
2022-12-24T01:36:51.176Z,939.12
2022-12-24T01:37:01.180Z,939.12
2022-12-24T01:37:11.180Z,939.16
2022-12-24T01:37:21.179Z,939.16
2022-12-24T01:37:31.186Z,939.14
2022-12-24T01:37:41.160Z,939.12
2022-12-24T01:37:51.177Z,939.09
2022-12-24T01:38:01.181Z,939.15
2022-12-24T01:38:11.181Z,939.21
2022-12-24T01:38:21.181Z,939.17
2022-12-24T01:38:31.184Z,939.07
2022-12-24T01:38:41.187Z,939.06
2022-12-24T01:38:51.182Z,939.11
2022-12-24T01:39:01.172Z,939.17
2022-12-24T01:39:11.186Z,939.16
2022-12-24T01:39:21.187Z,939.14
2022-12-24T01:39:31.187Z,939.13
2022-12-24T01:39:41.190Z,939.15
2022-12-24T01:39:51.196Z,939.18
2022-12-24T01:40:01.196Z,939.17
2022-12-24T01:40:11.203Z,939.18
2022-12-24T01:40:21.205Z,939.18
2022-12-24T01:40:31.193Z,939.19
2022-12-24T01:40:41.194Z,939.21
2022-12-24T01:40:51.203Z,939.26
2022-12-24T01:41:01.208Z,939.25
2022-12-24T01:41:11.195Z,939.19
2022-12-24T01:41:21.204Z,939.19
2022-12-24T01:41:31.195Z,939.14
2022-12-24T01:41:41.195Z,939.16
2022-12-24T01:41:51.203Z,939.19
2022-12-24T01:42:01.199Z,939.14
2022-12-24T01:42:11.201Z,939.15
2022-12-24T01:42:21.198Z,939.13
2022-12-24T01:42:31.186Z,939.13
2022-12-24T01:42:41.209Z,939.14
2022-12-24T01:42:51.202Z,939.19
2022-12-24T01:43:01.204Z,939.23
2022-12-24T01:43:11.209Z,939.25
2022-12-24T01:43:21.205Z,939.18
2022-12-24T01:43:31.211Z,939.17
2022-12-24T01:43:41.207Z,939.18
2022-12-24T01:43:51.220Z,939.18
2022-12-24T01:44:01.208Z,939.18
2022-12-24T01:44:11.191Z,939.19
2022-12-24T01:44:21.214Z,939.20
2022-12-24T01:44:36.183Z,939.20
2022-12-24T01:44:42.218Z,939.18
2022-12-24T01:44:51.221Z,939.21
2022-12-24T01:45:01.220Z,939.19
2022-12-24T01:45:11.224Z,939.18
2022-12-24T01:45:21.217Z,939.19
2022-12-24T01:45:31.224Z,939.17
2022-12-24T01:45:41.220Z,939.15
2022-12-24T01:45:51.217Z,939.17
2022-12-24T01:46:01.390Z,939.21
2022-12-24T01:46:11.244Z,939.18
2022-12-24T01:46:21.280Z,939.16
2022-12-24T01:46:31.304Z,939.17
2022-12-24T01:46:41.248Z,939.18
2022-12-24T01:46:51.315Z,939.21
2022-12-24T01:47:01.224Z,939.23
2022-12-24T01:47:11.233Z,939.20
2022-12-24T01:47:21.228Z,939.19
2022-12-24T01:47:31.229Z,939.17
2022-12-24T01:47:41.227Z,939.21
2022-12-24T01:47:51.227Z,939.19
2022-12-24T01:48:01.229Z,939.18
2022-12-24T01:48:11.229Z,939.21
2022-12-24T01:48:21.230Z,939.25
2022-12-24T01:48:31.229Z,939.23
2022-12-24T01:48:41.230Z,939.27
2022-12-24T01:48:51.240Z,939.25
2022-12-24T01:49:01.232Z,939.21
2022-12-24T01:49:11.234Z,939.20
2022-12-24T01:49:21.232Z,939.19
2022-12-24T01:49:31.235Z,939.17
2022-12-24T01:49:41.238Z,939.17
2022-12-24T01:49:51.234Z,939.21
2022-12-24T01:50:01.245Z,939.24
2022-12-24T01:50:11.242Z,939.25
2022-12-24T01:50:21.238Z,939.24
2022-12-24T01:50:31.237Z,939.22
2022-12-24T01:50:41.240Z,939.22
2022-12-24T01:50:51.240Z,939.24
2022-12-24T01:51:01.761Z,939.27
2022-12-24T01:51:11.240Z,939.29
2022-12-24T01:51:21.242Z,939.26
2022-12-24T01:51:31.241Z,939.25
2022-12-24T01:51:41.246Z,939.26
2022-12-24T01:51:51.245Z,939.25
2022-12-24T01:52:01.243Z,939.26
2022-12-24T01:52:11.257Z,939.29
2022-12-24T01:52:21.251Z,939.29
2022-12-24T01:52:31.260Z,939.27
2022-12-24T01:52:41.246Z,939.29
2022-12-24T01:52:51.250Z,939.29
2022-12-24T01:53:01.250Z,939.28
2022-12-24T01:53:11.251Z,939.27
2022-12-24T01:53:21.277Z,939.28
2022-12-24T01:53:31.254Z,939.27
2022-12-24T01:53:41.254Z,939.25
2022-12-24T01:53:51.259Z,939.25
2022-12-24T01:54:01.270Z,939.25
2022-12-24T01:54:11.255Z,939.25
2022-12-24T01:54:21.263Z,939.25
2022-12-24T01:54:31.257Z,939.26
2022-12-24T01:54:41.265Z,939.26
2022-12-24T01:54:51.261Z,939.26
2022-12-24T01:55:01.265Z,939.26
2022-12-24T01:55:11.268Z,939.23
2022-12-24T01:55:21.269Z,939.22
2022-12-24T01:55:31.269Z,939.23
2022-12-24T01:55:41.269Z,939.26
2022-12-24T01:55:51.274Z,939.28
2022-12-24T01:56:02.275Z,939.27
2022-12-24T01:56:11.271Z,939.25
2022-12-24T01:56:21.269Z,939.26
2022-12-24T01:56:31.276Z,939.27
2022-12-24T01:56:41.271Z,939.25
2022-12-24T01:56:51.278Z,939.22
2022-12-24T01:57:01.278Z,939.28
2022-12-24T01:57:11.276Z,939.29
2022-12-24T01:57:21.290Z,939.24
2022-12-24T01:57:31.275Z,939.23
2022-12-24T01:57:41.285Z,939.26
2022-12-24T01:57:51.288Z,939.27
2022-12-24T01:58:01.282Z,939.26
2022-12-24T01:58:11.277Z,939.29
2022-12-24T01:58:21.278Z,939.34
2022-12-24T01:58:31.275Z,939.36
2022-12-24T01:58:41.290Z,939.35
2022-12-24T01:58:51.276Z,939.34
2022-12-24T01:59:01.288Z,939.35
2022-12-24T01:59:11.280Z,939.41
2022-12-24T01:59:21.279Z,939.42
2022-12-24T01:59:31.281Z,939.42
2022-12-24T01:59:41.284Z,939.47
2022-12-24T01:59:51.284Z,939.44
2022-12-24T02:00:01.335Z,939.39
2022-12-24T02:00:11.294Z,939.36
2022-12-24T02:00:21.287Z,939.34
2022-12-24T02:00:31.283Z,939.35
2022-12-24T02:00:41.283Z,939.39
2022-12-24T02:00:51.288Z,939.48
2022-12-24T02:01:02.356Z,939.49
2022-12-24T02:01:11.328Z,939.35
2022-12-24T02:01:21.422Z,939.37
2022-12-24T02:01:31.422Z,939.41
2022-12-24T02:01:41.432Z,939.39
2022-12-24T02:01:51.460Z,939.41
2022-12-24T02:02:01.458Z,939.50
2022-12-24T02:02:11.398Z,939.52
2022-12-24T02:02:21.575Z,939.49
2022-12-24T02:02:31.581Z,939.45
2022-12-24T02:02:41.467Z,939.43
2022-12-24T02:02:51.418Z,939.44
2022-12-24T02:03:01.507Z,939.48
2022-12-24T02:03:11.355Z,939.50
2022-12-24T02:03:21.399Z,939.52
2022-12-24T02:03:31.360Z,939.50
2022-12-24T02:03:41.372Z,939.49
2022-12-24T02:03:51.402Z,939.48
2022-12-24T02:04:01.323Z,939.49
2022-12-24T02:04:11.305Z,939.49
2022-12-24T02:04:21.307Z,939.52
2022-12-24T02:04:31.314Z,939.49
2022-12-24T02:04:41.311Z,939.47